.
WxDataArchive / Data Records for 2009-07-24
2009-07-23 July 2009 2009-07-25

Data Records for Friday, 24 July 2009

Time	Temp	Chill	HIndex	Humid	Dewpt	 Wind 	HiWind	WindDir	Rain 	Barom 
-----	----	-----	------	-----	-----	------	------	-------	-----	----- 
00:00	66.4	66.4	66.4	78	59.3	0	0	---	0.00	29.906 
00:05	66.1	66.1	66.1	79	59.4	0	0	---	0.00	29.906 
00:10	66.0	66.0	66.0	79	59.3	0	0	---	0.00	29.906 
00:15	65.6	65.6	65.6	80	59.3	0	0	---	0.00	29.907 
00:20	65.3	65.3	65.3	81	59.3	0	0	---	0.00	29.907 
00:25	65.0	65.0	65.0	81	59.0	0	0	---	0.00	29.907 
00:30	64.5	64.5	64.5	82	58.9	0	0	---	0.00	29.910 
00:35	64.3	64.3	64.3	83	59.0	0	0	---	0.00	29.910 
00:40	64.0	64.0	64.0	84	59.1	0	0	---	0.00	29.910 
00:45	63.9	63.9	63.9	84	59.0	0	0	---	0.00	29.915 
00:50	63.5	63.5	63.5	84	58.6	0	0	---	0.00	29.915 
00:55	63.4	63.4	63.4	84	58.5	0	0	---	0.00	29.915 
01:00	63.1	63.1	63.1	84	58.2	0	0	---	0.00	29.916 
01:05	62.9	62.9	62.9	85	58.3	0	0	---	0.00	29.916 
01:10	62.6	62.6	62.6	85	58.0	0	0	---	0.00	29.916 
01:15	62.4	62.4	62.4	85	57.8	0	0	---	0.00	29.914 
01:20	62.1	62.1	62.1	86	57.9	0	0	---	0.00	29.914 
01:25	62.0	62.0	62.0	87	58.1	0	0	---	0.00	29.914 
01:30	61.8	61.8	61.8	87	57.9	0	0	---	0.00	29.917 
01:35	61.8	61.8	61.8	87	57.9	0	0	---	0.00	29.917 
01:40	61.8	61.8	61.8	88	58.2	0	0	---	0.00	29.917 
01:45	61.6	61.6	61.6	89	58.3	0	0	---	0.00	29.915 
01:50	61.6	61.6	61.6	89	58.3	0	0	---	0.00	29.915 
01:55	61.5	61.5	61.5	90	58.5	0	0	---	0.00	29.915 
02:00	61.3	61.3	61.3	90	58.3	0	0	---	0.00	29.916 
02:05	61.2	61.2	61.2	90	58.2	0	0	---	0.00	29.916 
02:10	61.0	61.0	61.0	90	58.0	0	0	---	0.00	29.916 
02:15	61.0	61.0	61.0	91	58.4	0	0	---	0.00	29.913 
02:20	60.9	60.9	60.9	91	58.3	0	0	---	0.00	29.913 
02:25	60.9	60.9	60.9	91	58.3	0	0	---	0.00	29.913 
02:30	60.7	60.7	60.7	91	58.1	0	0	---	0.00	29.910 
02:35	60.7	60.7	60.7	92	58.4	0	0	---	0.00	29.910 
02:40	60.5	60.5	60.5	92	58.2	0	0	---	0.00	29.910 
02:45	60.4	60.4	60.4	92	58.1	0	0	---	0.00	29.909 
02:50	60.2	60.2	60.2	92	57.9	0	0	---	0.00	29.909 
02:55	60.1	60.1	60.1	92	57.8	0	0	---	0.00	29.909 
03:00	59.9	59.9	59.9	92	57.6	0	0	---	0.00	29.908 
03:05	59.9	59.9	59.9	92	57.6	0	0	---	0.00	29.908 
03:10	59.8	59.8	59.8	92	57.5	0	0	---	0.00	29.908 
03:15	59.6	59.6	59.6	92	57.3	0	0	---	0.00	29.908 
03:20	59.8	59.8	59.8	93	57.8	0	0	---	0.00	29.908 
03:25	59.8	59.8	59.8	93	57.8	0	0	---	0.00	29.908 
03:30	59.6	59.6	59.6	93	57.6	0	0	---	0.00	29.900 
03:35	59.5	59.5	59.5	93	57.5	0	0	---	0.00	29.900 
03:40	59.3	59.3	59.3	93	57.3	0	0	---	0.00	29.900 
03:45	59.2	59.2	59.2	93	57.2	0	0	---	0.00	29.899 
03:50	59.3	59.3	59.3	94	57.6	0	0	---	0.00	29.899 
03:55	59.5	59.5	59.5	94	57.8	0	1	315	0.00	29.899 
04:00	59.5	59.5	59.5	94	57.8	0	0	---	0.00	29.898 
04:05	59.3	59.3	59.3	94	57.6	0	0	---	0.00	29.898 
04:10	59.3	59.3	59.3	94	57.6	0	0	---	0.00	29.898 
04:15	59.2	59.2	59.2	94	57.5	0	0	---	0.00	29.897 
04:20	59.2	59.2	59.2	94	57.5	0	0	---	0.00	29.897 
04:25	59.0	59.0	59.0	94	57.3	0	0	---	0.00	29.897 
04:30	59.0	59.0	59.0	94	57.3	0	0	---	0.00	29.895 
04:35	59.0	59.0	59.0	94	57.3	0	0	---	0.00	29.895 
04:40	59.0	59.0	59.0	94	57.3	0	0	---	0.00	29.895 
04:45	59.0	59.0	59.0	94	57.3	0	0	---	0.00	29.896 
04:50	58.9	58.9	58.9	94	57.2	0	0	---	0.00	29.896 
04:55	58.7	58.7	58.7	94	57.0	0	0	---	0.00	29.896 
05:00	58.7	58.7	58.7	94	57.0	0	0	---	0.00	29.896 
05:05	58.7	58.7	58.7	94	57.0	0	0	---	0.00	29.896 
05:10	58.6	58.6	58.6	95	57.2	0	0	---	0.00	29.896 
05:15	58.6	58.6	58.6	94	56.9	0	0	---	0.00	29.897 
05:20	58.4	58.4	58.4	94	56.7	0	0	---	0.00	29.897 
05:25	58.3	58.3	58.3	95	56.9	0	0	---	0.00	29.897 
05:30	58.3	58.3	58.3	95	56.9	0	0	---	0.00	29.898 
05:35	58.1	58.1	58.1	95	56.7	0	0	---	0.00	29.898 
05:40	58.1	58.1	58.1	95	56.7	0	0	---	0.00	29.898 
05:45	58.1	58.1	58.1	95	56.7	0	0	---	0.00	29.897 
05:50	58.0	58.0	58.0	95	56.6	0	0	---	0.00	29.897 
05:55	57.8	57.8	57.8	95	56.4	0	0	---	0.00	29.897 
06:00	57.6	57.6	57.6	95	56.2	0	0	---	0.00	29.902 
06:05	57.5	57.5	57.5	95	56.1	0	0	---	0.00	29.902 
06:10	57.5	57.5	57.5	95	56.1	0	0	---	0.00	29.902 
06:15	57.3	57.3	57.3	95	55.9	0	0	---	0.00	29.905 
06:20	57.3	57.3	57.3	95	55.9	0	0	---	0.00	29.905 
06:25	57.2	57.2	57.2	95	55.8	0	0	---	0.00	29.905 
06:30	57.2	57.2	57.2	95	55.8	0	0	---	0.00	29.909 
06:35	57.2	57.2	57.2	95	55.8	0	0	---	0.00	29.909 
06:40	57.2	57.2	57.2	95	55.8	0	0	---	0.00	29.909 
06:45	57.0	57.0	57.0	95	55.6	0	0	---	0.00	29.908 
06:50	57.0	57.0	57.0	95	55.6	0	0	---	0.00	29.908 
06:55	57.2	57.2	57.2	95	55.8	0	0	---	0.00	29.908 
07:00	57.5	57.5	57.5	96	56.4	0	0	---	0.00	29.905 
07:05	57.8	57.8	57.8	96	56.7	0	0	---	0.00	29.905 
07:10	58.0	58.0	58.0	96	56.9	0	0	---	0.00	29.905 
07:15	58.1	58.1	58.1	96	57.0	0	0	---	0.00	29.909 
07:20	58.4	58.4	58.4	96	57.3	0	0	---	0.00	29.909 
07:25	58.9	58.9	58.9	96	57.8	0	0	---	0.00	29.909 
07:30	59.2	59.2	59.2	96	58.1	0	0	---	0.00	29.911 
07:35	59.5	59.5	59.5	96	58.4	0	0	---	0.00	29.911 
07:40	59.8	59.8	59.8	96	58.7	0	0	---	0.00	29.911 
07:45	60.1	60.1	60.1	96	59.0	0	1	315	0.00	29.916 
07:50	60.4	60.4	60.4	96	59.3	0	1	315	0.00	29.916 
07:55	60.9	60.9	60.9	95	59.5	0	1	315	0.00	29.916 
08:00	61.2	61.2	61.2	95	59.8	0	1	315	0.00	29.925 
08:05	61.6	61.6	61.6	94	59.9	0	1	315	0.00	29.925 
08:10	62.1	62.1	62.1	93	60.0	0	1	315	0.00	29.925 
08:15	62.6	62.6	62.6	92	60.2	0	1	315	0.00	29.928 
08:20	63.2	63.2	63.2	91	60.5	0	1	315	0.00	29.928 
08:25	63.7	63.7	63.7	89	60.4	0	1	315	0.00	29.928 
08:30	64.3	64.3	64.3	86	60.0	0	2	315	0.00	29.928 
08:35	64.8	64.8	64.8	84	59.8	0	1	315	0.00	29.928 
08:40	65.5	65.5	65.5	82	59.9	0	2	315	0.00	29.928 
08:45	66.0	66.0	66.0	79	59.3	0	2	315	0.00	29.927 
08:50	66.4	66.4	66.4	78	59.3	1	3	315	0.00	29.927 
08:55	66.9	66.9	66.9	76	59.1	1	2	315	0.00	29.927 
09:00	67.4	67.4	67.4	75	59.2	1	2	315	0.00	29.928 
09:05	67.8	67.8	67.8	75	59.6	1	2	315	0.00	29.928 
09:10	68.4	68.4	68.4	73	59.4	1	2	315	0.00	29.928 
09:15	68.8	68.8	68.8	70	58.6	1	2	315	0.00	29.930 
09:20	69.3	69.3	69.3	69	58.7	1	3	315	0.00	29.930 
09:25	69.6	69.6	69.6	66	57.7	1	3	292	0.00	29.930 
09:30	69.9	69.9	69.9	65	57.6	1	3	292	0.00	29.926 
09:35	70.4	70.4	70.4	67	58.9	0	1	292	0.00	29.926 
09:40	70.9	70.9	70.9	64	58.1	1	2	292	0.00	29.926 
09:45	71.5	71.5	71.5	62	57.8	1	2	292	0.00	29.926 
09:50	72.0	72.0	72.0	62	58.3	1	3	292	0.00	29.926 
09:55	72.3	72.3	72.3	61	58.1	1	2	292	0.00	29.926 
10:00	72.8	72.8	72.8	60	58.1	0	2	292	0.00	29.924 
10:05	73.2	73.2	73.2	58	57.5	1	2	292	0.00	29.924 
10:10	73.2	73.2	73.2	58	57.5	1	2	292	0.00	29.924 
10:15	73.3	73.3	73.3	60	58.6	0	2	292	0.00	29.925 
10:20	73.7	73.7	73.7	58	58.0	0	1	292	0.00	29.925 
10:25	74.2	74.2	74.2	59	58.9	1	2	292	0.00	29.925 
10:30	74.6	74.6	74.6	57	58.3	1	3	292	0.00	29.924 
10:35	75.1	75.1	77.5	57	58.8	1	3	225	0.00	29.924 
10:40	75.3	75.3	77.7	55	58.0	1	2	248	0.00	29.924 
10:45	75.3	75.3	77.7	56	58.5	1	3	248	0.00	29.923 
10:50	75.3	75.3	77.7	56	58.5	1	2	248	0.00	29.923 
10:55	75.4	75.4	77.7	56	58.6	1	3	270	0.00	29.923 
11:00	75.3	75.3	77.7	55	58.0	1	3	270	0.00	29.922 
11:05	75.3	75.3	77.7	54	57.5	2	4	270	0.00	29.922 
11:10	75.3	75.3	77.6	57	59.0	1	3	292	0.00	29.922 
11:15	75.4	75.4	77.8	54	57.6	1	3	292	0.00	29.926 
11:20	75.6	75.6	77.9	53	57.2	1	3	292	0.00	29.926 
11:25	76.0	76.0	78.1	51	56.5	1	3	292	0.00	29.926 
11:30	76.1	76.1	78.1	54	58.2	1	4	292	0.00	29.924 
11:35	76.3	76.3	78.2	51	56.8	1	4	270	0.00	29.924 
11:40	76.8	76.8	78.6	54	58.9	1	2	270	0.00	29.924 
11:45	77.4	77.4	78.9	51	57.8	1	3	270	0.00	29.923 
11:50	77.6	77.6	78.9	49	56.9	1	4	270	0.00	29.923 
11:55	77.7	77.7	79.0	50	57.6	1	3	270	0.00	29.923 
12:00	77.7	77.7	79.0	50	57.6	1	3	270	0.00	29.921 
12:05	77.9	77.9	79.1	48	56.6	1	2	270	0.00	29.921 
12:10	77.9	77.9	79.1	48	56.6	1	5	270	0.00	29.921 
12:15	77.9	77.9	79.0	46	55.4	1	5	270	0.00	29.924 
12:20	78.3	78.3	79.4	50	58.1	1	3	270	0.00	29.924 
12:25	78.5	78.5	79.4	47	56.6	1	3	270	0.00	29.924 
12:30	78.3	78.3	79.3	47	56.4	1	4	292	0.00	29.922 
12:35	78.5	78.5	79.4	47	56.6	1	3	292	0.00	29.922 
12:40	78.8	78.8	79.8	50	58.6	1	3	292	0.00	29.922 
12:45	79.0	79.0	80.0	50	58.7	1	3	292	0.00	29.921 
12:50	79.6	79.6	80.2	47	57.6	1	3	270	0.00	29.921 
12:55	79.4	79.4	80.0	46	56.8	2	4	270	0.00	29.921 
13:00	79.4	79.4	80.0	46	56.8	0	3	292	0.00	29.919 
13:05	79.6	79.6	80.0	45	56.4	2	4	270	0.00	29.919 
13:10	79.6	79.6	80.5	50	59.3	1	3	270	0.00	29.919 
13:15	79.8	79.8	80.3	46	57.2	2	4	270	0.00	29.922 
13:20	79.8	79.8	80.5	48	58.3	1	3	270	0.00	29.922 
13:25	80.1	80.1	80.5	46	57.4	1	3	90	0.00	29.922 
13:30	80.5	80.5	80.7	45	57.2	1	4	270	0.00	29.917 
13:35	80.5	80.5	80.6	43	55.9	2	5	270	0.00	29.917 
13:40	80.1	80.1	80.3	44	56.2	1	3	292	0.00	29.917 
13:45	80.1	80.1	80.3	44	56.2	2	5	315	0.00	29.915 
13:50	80.3	80.3	80.6	45	57.0	1	4	270	0.00	29.915 
13:55	81.1	81.1	81.5	47	58.9	0	2	292	0.00	29.915 
14:00	81.6	81.6	81.3	42	56.3	1	4	248	0.00	29.912 
14:05	82.0	82.0	81.7	42	56.6	1	4	292	0.00	29.912 
14:10	81.2	81.2	81.0	42	55.9	2	5	270	0.00	29.912 
14:15	80.1	80.1	80.3	43	55.6	1	3	292	0.00	29.911 
14:20	80.3	80.3	80.6	45	57.0	2	5	292	0.00	29.911 
14:25	80.9	80.9	81.2	46	58.2	1	2	292	0.00	29.911 
14:30	80.9	80.9	81.2	46	58.2	1	3	338	0.00	29.908 
14:35	79.9	79.9	80.1	43	55.4	2	6	292	0.00	29.908 
14:40	80.3	80.3	80.6	45	57.0	2	5	270	0.00	29.908 
14:45	81.1	81.1	81.3	45	57.7	1	4	225	0.00	29.909 
14:50	81.2	81.2	80.9	41	55.2	2	5	270	0.00	29.909 
14:55	81.1	81.1	81.1	44	57.1	1	4	270	0.00	29.909 
15:00	81.2	81.2	81.2	44	57.2	1	4	292	0.00	29.906 
15:05	81.4	81.4	81.3	43	56.7	2	4	270	0.00	29.906 
15:10	81.6	81.6	81.3	42	56.3	1	4	270	0.00	29.906 
15:15	81.4	81.4	81.0	40	54.7	2	5	315	0.00	29.909 
15:20	81.4	81.4	80.9	39	54.0	1	4	270	0.00	29.909 
15:25	81.4	81.4	80.9	39	54.0	1	3	270	0.00	29.909 
15:30	81.6	81.6	80.8	37	52.8	2	5	270	0.00	29.900 
15:35	82.2	82.2	82.0	43	57.4	2	5	270	0.00	29.900 
15:40	82.8	82.8	82.3	41	56.7	1	3	270	0.00	29.900 
15:45	82.0	82.0	81.6	41	55.9	1	3	270	0.00	29.892 
15:50	81.4	81.4	81.5	45	58.0	1	4	270	0.00	29.892 
15:55	81.2	81.2	81.1	43	56.5	1	3	270	0.00	29.892 
16:00	81.8	81.8	81.9	45	58.4	2	3	270	0.00	29.890 
16:05	82.0	82.0	81.8	43	57.3	1	4	270	0.00	29.890 
16:10	82.0	82.0	82.2	46	59.1	1	3	270	0.00	29.890 
16:15	81.6	81.6	81.7	45	58.2	2	4	270	0.00	29.891 
16:20	81.2	81.2	81.5	46	58.4	1	4	270	0.00	29.891 
16:25	80.9	80.9	81.2	46	58.2	2	4	292	0.00	29.891 
16:30	80.7	80.7	81.1	47	58.6	0	2	292	0.00	29.889 
16:35	80.5	80.5	80.8	46	57.8	1	3	292	0.00	29.889 
16:40	80.9	80.9	81.2	46	58.2	0	2	292	0.00	29.889 
16:45	81.2	81.2	81.3	45	57.8	1	3	270	0.00	29.889 
16:50	80.9	80.9	81.3	47	58.8	1	4	270	0.00	29.889 
16:55	80.7	80.7	81.0	46	58.0	1	5	270	0.00	29.889 
17:00	80.3	80.3	80.8	47	58.2	1	3	270	0.00	29.890 
17:05	80.3	80.3	80.9	48	58.8	1	4	270	0.00	29.890 
17:10	80.7	80.7	81.3	49	59.7	1	3	270	0.00	29.890 
17:15	80.9	80.9	81.4	48	59.3	1	3	248	0.00	29.887 
17:20	81.2	81.2	81.5	46	58.4	1	3	248	0.00	29.887 
17:25	80.9	80.9	81.3	47	58.8	1	4	270	0.00	29.887 
17:30	80.7	80.7	81.1	47	58.6	1	4	292	0.00	29.884 
17:35	80.9	80.9	81.1	45	57.5	2	5	270	0.00	29.884 
17:40	80.9	80.9	81.0	44	56.9	2	4	248	0.00	29.884 
17:45	80.9	80.9	81.0	44	56.9	1	3	270	0.00	29.880 
17:50	80.5	80.5	80.8	46	57.8	1	3	270	0.00	29.880 
17:55	80.7	80.7	81.0	46	58.0	1	3	248	0.00	29.880 
18:00	80.9	80.9	81.3	47	58.8	1	3	248	0.00	29.880 
18:05	80.9	80.9	81.2	46	58.2	1	3	292	0.00	29.880 
18:10	80.3	80.3	80.7	46	57.6	1	2	270	0.00	29.880 
18:15	80.3	80.3	80.9	48	58.8	0	2	270	0.00	29.878 
18:20	80.3	80.3	80.7	46	57.6	0	2	270	0.00	29.878 
18:25	80.3	80.3	80.7	46	57.6	1	2	270	0.00	29.878 
18:30	80.1	80.1	80.7	48	58.6	1	3	270	0.00	29.877 
18:35	80.1	80.1	80.8	49	59.2	0	2	270	0.00	29.877 
18:40	79.9	79.9	80.4	47	57.8	1	2	270	0.00	29.877 
18:45	79.8	79.8	80.4	47	57.8	1	3	270	0.00	29.869 
18:50	79.6	79.6	80.3	48	58.2	0	2	248	0.00	29.869 
18:55	79.4	79.4	80.1	48	58.0	0	2	248	0.00	29.869 
19:00	79.4	79.4	80.0	46	56.8	1	3	248	0.00	29.864 
19:05	79.2	79.2	79.9	47	57.2	0	2	248	0.00	29.864 
19:10	79.2	79.2	79.9	47	57.2	1	2	248	0.00	29.864 
19:15	79.4	79.4	80.1	47	57.4	0	2	248	0.00	29.856 
19:20	79.4	79.4	80.1	47	57.4	0	2	270	0.00	29.856 
19:25	79.2	79.2	79.9	47	57.2	0	1	270	0.00	29.856 
19:30	79.4	79.4	80.2	49	58.5	0	2	270	0.00	29.845 
19:35	79.4	79.4	80.1	48	58.0	0	2	270	0.00	29.845 
19:40	79.2	79.2	79.8	46	56.6	0	2	270	0.00	29.845 
19:45	79.0	79.0	79.7	46	56.4	0	2	270	0.00	29.841 
19:50	78.8	78.8	79.6	47	56.8	0	2	45	0.00	29.841 
19:55	78.6	78.6	79.5	47	56.7	0	2	45	0.00	29.841 
20:00	78.6	78.6	79.5	47	56.7	0	3	292	0.00	29.843 
20:05	78.5	78.5	79.5	48	57.2	0	3	270	0.00	29.843 
20:10	78.3	78.3	79.4	50	58.1	0	3	68	0.00	29.843 
20:15	78.1	78.1	79.2	48	56.8	1	2	68	0.00	29.842 
20:20	77.9	77.9	79.1	49	57.2	0	1	45	0.00	29.842 
20:25	77.7	77.7	79.0	50	57.6	0	1	22	0.00	29.842 
20:30	77.4	77.4	78.8	50	57.3	0	2	22	0.00	29.833 
20:35	77.2	77.2	78.7	51	57.6	0	1	22	0.00	29.833 
20:40	77.0	77.0	78.7	52	58.0	0	1	22	0.00	29.833 
20:45	76.8	76.8	78.5	53	58.4	0	2	292	0.00	29.833 
20:50	76.7	76.7	78.5	53	58.3	0	2	292	0.00	29.833 
20:55	76.5	76.5	78.4	54	58.6	0	1	292	0.00	29.833 
21:00	76.3	76.3	78.3	55	58.9	0	1	292	0.00	29.831 
21:05	76.0	76.0	78.1	55	58.6	0	1	292	0.00	29.831 
21:10	75.8	75.8	77.9	56	59.0	0	0	---	0.00	29.831 
21:15	75.4	75.4	77.7	57	59.1	0	0	---	0.00	29.823 
21:20	75.1	75.1	77.5	58	59.3	0	0	---	0.00	29.823 
21:25	74.7	74.7	74.7	58	58.9	0	0	---	0.00	29.823 
21:30	74.4	74.4	74.4	59	59.1	0	0	---	0.00	29.820 
21:35	74.0	74.0	74.0	60	59.2	0	0	---	0.00	29.820 
21:40	73.7	73.7	73.7	61	59.4	0	0	---	0.00	29.820 
21:45	73.3	73.3	73.3	62	59.5	0	0	---	0.00	29.824 
21:50	73.2	73.2	73.2	63	59.8	0	0	---	0.00	29.824 
21:55	72.8	72.8	72.8	64	59.9	0	0	---	0.00	29.824 
22:00	72.7	72.7	72.7	64	59.8	0	0	---	0.00	29.826 
22:05	72.3	72.3	72.3	65	59.9	0	0	---	0.00	29.826 
22:10	72.1	72.1	72.1	65	59.7	0	1	292	0.00	29.826 
22:15	72.1	72.1	72.1	66	60.1	0	0	---	0.00	29.824 
22:20	72.0	72.0	72.0	66	60.0	0	0	---	0.00	29.824 
22:25	71.8	71.8	71.8	67	60.2	0	0	---	0.00	29.824 
22:30	71.6	71.6	71.6	67	60.0	0	0	---	0.00	29.825 
22:35	71.5	71.5	71.5	68	60.4	0	0	---	0.00	29.825 
22:40	71.3	71.3	71.3	69	60.6	0	0	---	0.00	29.825 
22:45	71.3	71.3	71.3	69	60.6	0	0	---	0.00	29.824 
22:50	71.1	71.1	71.1	70	60.8	0	0	---	0.00	29.824 
22:55	70.9	70.9	70.9	70	60.6	0	1	292	0.00	29.824 
23:00	70.8	70.8	70.8	71	60.9	0	0	---	0.00	29.821 
23:05	70.6	70.6	70.6	71	60.7	0	0	---	0.00	29.821 
23:10	70.4	70.4	70.4	72	60.9	0	0	---	0.00	29.821 
23:15	70.1	70.1	70.1	72	60.6	0	0	---	0.00	29.822 
23:20	69.9	69.9	69.9	73	60.8	0	0	---	0.00	29.822 
23:25	69.8	69.8	69.8	73	60.7	0	0	---	0.00	29.822 
23:30	69.8	69.8	69.8	73	60.7	0	1	292	0.00	29.808 
23:35	69.6	69.6	69.6	73	60.6	0	0	---	0.00	29.808 
23:40	69.6	69.6	69.6	73	60.6	0	0	---	0.00	29.808 
23:45	69.4	69.4	69.4	74	60.7	0	0	---	0.00	29.817 
23:50	69.1	69.1	69.1	74	60.5	0	0	---	0.00	29.817 
23:55	68.9	68.9	68.9	75	60.6	0	0	---	0.00	29.817 

CoCoRaHS
IN-AL-39
A2 Web Hosting
Creative Commons License
GoDaddy
search engine by freefind advanced

loaded 2018-11-15 16:28:23 • last modified 2010-11-18 10:43:29
Privacy PolicyDisclaimer
• wx.awcolley.com is powered by PmWiki v.2002016 •
• all content (unless otherwise noted) © 2018 A W Colley